TimePDT,TemperatureF,Dew PointF,Humidity,Sea Level PressureIn,VisibilityMPH,Wind Direction,Wind SpeedMPH,Gust SpeedMPH,PrecipitationIn,Events,Conditions,WindDirDegrees,DateUTC
12:54 AM,55.9,54.0,93,30.06,10.0,Calm,Calm,-,N/A,,Partly Cloudy,0,2013-08-04 07:54:00
1:54 AM,57.0,55.9,96,30.05,10.0,Calm,Calm,-,N/A,,Clear,0,2013-08-04 08:54:00
2:54 AM,55.9,55.0,97,30.04,6.0,Calm,Calm,-,N/A,,Clear,0,2013-08-04 09:54:00
3:54 AM,54.0,54.0,100,30.05,2.0,Calm,Calm,-,N/A,,Clear,0,2013-08-04 10:54:00
3:56 AM,53.1,53.1,100,30.05,1.2,Calm,Calm,-,N/A,,Clear,0,2013-08-04 10:56:00
4:04 AM,53.1,52.0,96,30.05,2.0,North,3.5,-,N/A,,Clear,360,2013-08-04 11:04:00
4:11 AM,55.0,53.1,93,30.05,9.0,North,4.6,-,N/A,,Clear,10,2013-08-04 11:11:00
4:54 AM,57.0,55.9,96,30.05,10.0,NNE,5.8,-,N/A,,Clear,20,2013-08-04 11:54:00
5:54 AM,55.9,55.0,97,30.06,10.0,NNE,3.5,-,N/A,,Clear,30,2013-08-04 12:54:00
6:54 AM,55.9,55.0,97,30.06,6.0,Calm,Calm,-,N/A,,Clear,0,2013-08-04 13:54:00
7:54 AM,62.1,55.9,80,30.07,10.0,NNE,6.9,-,N/A,,Clear,30,2013-08-04 14:54:00
8:54 AM,64.0,55.9,75,30.06,10.0,NE,6.9,-,N/A,,Partly Cloudy,40,2013-08-04 15:54:00
9:54 AM,66.9,57.0,70,30.06,10.0,North,4.6,-,N/A,,Clear,10,2013-08-04 16:54:00
10:54 AM,70.0,57.9,65,30.05,10.0,North,6.9,-,N/A,,Clear,10,2013-08-04 17:54:00
11:54 AM,73.9,57.9,57,30.04,10.0,NNW,8.1,-,N/A,,Clear,340,2013-08-04 18:54:00
12:54 PM,75.9,57.0,52,30.03,10.0,ENE,6.9,-,N/A,,Clear,60,2013-08-04 19:54:00
1:54 PM,79.0,57.9,48,30.02,10.0,NNE,9.2,18.4,N/A,,Clear,30,2013-08-04 20:54:00
2:54 PM,81.0,57.0,44,29.99,10.0,NNE,8.1,-,N/A,,Clear,30,2013-08-04 21:54:00
3:54 PM,82.9,57.9,42,29.97,10.0,North,8.1,-,N/A,,Clear,360,2013-08-04 22:54:00
4:54 PM,82.0,57.9,44,29.96,10.0,Variable,4.6,-,N/A,,Clear,0,2013-08-04 23:54:00
5:54 PM,82.9,57.9,42,29.94,10.0,NNE,5.8,-,N/A,,Clear,30,2013-08-05 00:54:00
6:54 PM,81.0,57.9,45,29.94,10.0,ENE,5.8,-,N/A,,Clear,60,2013-08-05 01:54:00
7:54 PM,79.0,57.0,47,29.95,10.0,North,5.8,-,N/A,,Clear,10,2013-08-05 02:54:00
8:54 PM,75.0,57.0,53,29.96,10.0,North,6.9,-,N/A,,Clear,350,2013-08-05 03:54:00
9:54 PM,71.1,59.0,66,29.97,10.0,NNE,4.6,-,N/A,,Clear,20,2013-08-05 04:54:00
10:54 PM,66.0,57.9,75,29.99,10.0,Calm,Calm,-,N/A,,Clear,0,2013-08-05 05:54:00
11:54 PM,63.0,57.9,84,29.99,10.0,Calm,Calm,-,N/A,,Clear,0,2013-08-05 06:54:00